Time;durP1;ratioP1;P1;durP2;ratioP2;P2;SDS_P1;SDS_P2;PMS_P1;PMS_P2;Temp;Humidity;BMP_temperature;BMP_pressure;BME280_temperature;BME280_humidity;BME280_pressure;Samples;Min_cycle;Max_cycle;Signal;HPM_P1;HPM_P2
2021/04/29 00:00:10;;;;;;;6.47;3.88;;;24.60;96.00;;;;;;5083496;28;20735;-79
2021/04/29 00:02:37;;;;;;;4.05;3.50;;;24.40;95.70;;;;;;5087488;28;20526;-78
2021/04/29 00:05:07;;;;;;;6.15;4.03;;;23.10;96.80;;;;;;5073974;28;20388;-78
2021/04/29 00:07:34;;;;;;;5.90;4.30;;;22.20;98.40;;;;;;5087252;28;20400;-78
2021/04/29 00:10:02;;;;;;;5.40;3.90;;;20.80;99.90;;;;;;5084808;28;20404;-77
2021/04/29 00:12:29;;;;;;;6.53;3.83;;;20.00;99.90;;;;;;5099347;28;20384;-78
2021/04/29 00:14:56;;;;;;;5.20;4.05;;;19.50;99.90;;;;;;5076537;28;20386;-78
2021/04/29 00:17:23;;;;;;;5.40;4.17;;;19.20;99.90;;;;;;5080068;28;20596;-76
2021/04/29 00:19:50;;;;;;;4.20;3.80;;;19.20;99.90;;;;;;5088082;28;20431;-77
2021/04/29 00:22:17;;;;;;;4.05;3.42;;;19.10;99.90;;;;;;5088410;28;20393;-79
2021/04/29 00:24:44;;;;;;;3.77;3.23;;;19.00;99.90;;;;;;5086289;28;20439;-77
2021/04/29 00:27:11;;;;;;;3.87;3.30;;;18.80;99.90;;;;;;5087681;28;20384;-78
2021/04/29 00:29:38;;;;;;;4.75;3.70;;;18.80;99.90;;;;;;5087833;28;20767;-79
2021/04/29 00:32:05;;;;;;;4.85;3.22;;;18.80;99.90;;;;;;5088277;28;20893;-78
2021/04/29 00:34:32;;;;;;;4.88;3.50;;;18.70;99.90;;;;;;5087912;28;20385;-78
2021/04/29 00:36:59;;;;;;;5.05;3.83;;;18.70;99.90;;;;;;5087518;28;20433;-78
2021/04/29 00:39:26;;;;;;;4.05;3.38;;;18.80;99.90;;;;;;5088283;28;20395;-78
2021/04/29 00:41:53;;;;;;;4.47;3.58;;;18.90;99.90;;;;;;5088526;28;20531;-77
2021/04/29 00:44:20;;;;;;;4.78;3.40;;;19.10;99.90;;;;;;5088114;28;20373;-77
2021/04/29 00:46:47;;;;;;;3.95;2.97;;;19.40;99.90;;;;;;5088026;28;20360;-77
2021/04/29 00:49:16;;;;;;;3.22;2.53;;;19.50;99.90;;;;;;5086965;28;20538;-78
2021/04/29 00:51:43;;;;;;;4.40;2.80;;;19.70;99.90;;;;;;5087863;28;20922;-78
2021/04/29 00:54:10;;;;;;;3.92;3.13;;;19.80;99.90;;;;;;5087395;28;20396;-77
2021/04/29 00:56:37;;;;;;;3.80;3.15;;;19.70;99.90;;;;;;5088258;28;20394;-78
2021/04/29 00:59:08;;;;;;;5.93;3.47;;;19.90;99.90;;;;;;5087821;28;20483;-78
2021/04/29 01:01:35;;;;;;;3.65;3.30;;;20.50;99.90;;;;;;5087855;28;20377;-78
2021/04/29 01:04:20;;;;;;;4.88;2.83;;;20.50;99.90;;;;;;5088152;28;20380;-78
2021/04/29 01:06:58;;;;;;;4.63;3.33;;;20.30;99.90;;;;;;5086585;28;20810;-79
2021/04/29 01:13:02;;;;;;;3.58;3.28;;;20.00;99.90;;;;;;5064110;28;20373;-78
2021/04/29 01:15:29;;;;;;;4.05;3.63;;;19.90;99.90;;;;;;5087273;28;20773;-77
2021/04/29 01:17:58;;;;;;;3.70;3.27;;;19.80;99.90;;;;;;5086169;28;20384;-77
2021/04/29 01:20:49;;;;;;;4.78;3.25;;;19.80;99.90;;;;;;5090040;28;20525;-77
2021/04/29 01:23:46;;;;;;;3.60;3.30;;;19.80;99.90;;;;;;5092113;28;20429;-76
2021/04/29 01:26:40;;;;;;;3.33;3.03;;;19.90;99.90;;;;;;5090386;28;20521;-77
2021/04/29 01:29:16;;;;;;;5.35;3.60;;;19.90;99.90;;;;;;5078658;28;20792;-77
2021/04/29 01:31:45;;;;;;;4.07;3.78;;;19.80;99.90;;;;;;5083783;28;20917;-77
2021/04/29 01:34:16;;;;;;;4.53;3.63;;;19.80;99.90;;;;;;5081429;28;20409;-78
2021/04/29 01:36:45;;;;;;;5.63;3.50;;;19.90;99.90;;;;;;5089848;28;20380;-77
2021/04/29 01:39:15;;;;;;;5.53;3.60;;;19.90;99.90;;;;;;5089976;28;20395;-77
2021/04/29 01:41:51;;;;;;;5.18;3.47;;;19.90;99.90;;;;;;5083244;28;20472;-77
2021/04/29 01:44:21;;;;;;;3.42;2.90;;;19.90;99.90;;;;;;5090042;28;20391;-78
2021/04/29 01:46:48;;;;;;;3.50;3.22;;;20.00;99.90;;;;;;5088879;28;20393;-78
2021/04/29 01:49:16;;;;;;;4.10;3.30;;;20.00;99.90;;;;;;5074028;28;20417;-78
2021/04/29 01:51:44;;;;;;;5.60;3.58;;;20.00;99.90;;;;;;5090004;28;20388;-77
2021/04/29 01:54:13;;;;;;;3.55;3.22;;;20.10;99.90;;;;;;5089200;28;20450;-77
2021/04/29 01:56:41;;;;;;;4.60;3.05;;;20.10;99.90;;;;;;5076370;28;20757;-78
2021/04/29 01:59:09;;;;;;;3.95;3.20;;;20.00;99.30;;;;;;5083251;28;20451;-78
2021/04/29 02:01:41;;;;;;;4.53;3.33;;;20.00;99.30;;;;;;5091660;28;20471;-77
2021/04/29 02:04:09;;;;;;;6.30;3.72;;;19.90;99.60;;;;;;5080780;28;20960;-78
2021/04/29 02:06:38;;;;;;;3.83;3.40;;;19.90;98.70;;;;;;5082903;28;20432;-77
2021/04/29 02:09:06;;;;;;;3.58;3.10;;;19.90;98.90;;;;;;5085393;28;20410;-78
2021/04/29 02:11:38;;;;;;;4.60;3.47;;;19.90;98.50;;;;;;5086236;28;20464;-77
2021/04/29 02:14:18;;;;;;;3.20;2.90;;;20.00;98.90;;;;;;5076020;28;20408;-79
2021/04/29 02:16:47;;;;;;;2.92;2.70;;;20.10;99.00;;;;;;5080550;28;20459;-77
2021/04/29 02:19:17;;;;;;;4.60;3.00;;;20.10;98.40;;;;;;5080545;28;20413;-77
2021/04/29 02:21:47;;;;;;;4.25;3.25;;;20.10;97.80;;;;;;5075522;28;20542;-77
2021/04/29 02:24:15;;;;;;;5.47;3.10;;;20.10;98.80;;;;;;5082138;28;20488;-77
2021/04/29 02:26:42;;;;;;;3.20;2.90;;;20.30;96.90;;;;;;5080656;28;20633;-77
2021/04/29 02:29:09;;;;;;;4.93;2.80;;;20.30;96.10;;;;;;5077522;28;20412;-77
2021/04/29 02:31:38;;;;;;;3.58;2.97;;;20.30;95.70;;;;;;5077655;28;20518;-78
2021/04/29 02:34:07;;;;;;;4.45;2.83;;;20.20;95.30;;;;;;5080885;28;20373;-78
2021/04/29 02:36:35;;;;;;;2.80;2.60;;;20.20;96.40;;;;;;5084612;28;20404;-77
2021/04/29 02:39:06;;;;;;;5.32;3.00;;;20.30;95.40;;;;;;5089655;28;20693;-77
2021/04/29 02:41:34;;;;;;;4.05;2.80;;;20.30;96.20;;;;;;5098143;28;20372;-77
2021/04/29 02:44:01;;;;;;;3.65;2.92;;;20.30;96.10;;;;;;5082192;28;20455;-78
2021/04/29 02:46:29;;;;;;;4.70;2.85;;;20.40;95.90;;;;;;5090028;28;20867;-77
2021/04/29 02:48:56;;;;;;;2.70;2.50;;;20.40;96.30;;;;;;5084912;28;20960;-78
2021/04/29 02:51:34;;;;;;;4.20;2.83;;;20.50;96.30;;;;;;5084533;28;20527;-78
2021/04/29 02:54:08;;;;;;;3.10;2.80;;;20.50;96.00;;;;;;5087170;28;20925;-79
2021/04/29 02:56:40;;;;;;;3.97;2.92;;;20.50;95.80;;;;;;5082823;28;20477;-78
2021/04/29 02:59:08;;;;;;;3.33;3.03;;;20.50;96.50;;;;;;5079332;28;20407;-78
2021/04/29 03:01:36;;;;;;;3.27;2.97;;;20.60;95.90;;;;;;5077716;28;20379;-78
2021/04/29 03:04:04;;;;;;;3.50;2.85;;;20.60;96.20;;;;;;5078939;28;20394;-79
2021/04/29 03:06:31;;;;;;;4.60;3.60;;;20.50;97.50;;;;;;5082589;28;20392;-79
2021/04/29 03:08:58;;;;;;;6.35;3.83;;;20.50;97.10;;;;;;5082106;28;20410;-78
2021/04/29 03:11:25;;;;;;;5.55;4.22;;;20.60;97.30;;;;;;5084355;28;20935;-77
2021/04/29 03:13:52;;;;;;;4.40;3.72;;;20.60;97.30;;;;;;5076332;28;20559;-78
2021/04/29 03:16:19;;;;;;;4.70;4.20;;;20.60;96.50;;;;;;5089810;28;20740;-78
2021/04/29 03:18:46;;;;;;;5.13;3.73;;;20.70;97.20;;;;;;5087818;28;20761;-77
2021/04/29 03:21:13;;;;;;;4.00;3.60;;;20.70;96.60;;;;;;5088123;28;20898;-78
2021/04/29 03:23:40;;;;;;;4.18;3.60;;;20.70;96.90;;;;;;5073623;28;20470;-78
2021/04/29 03:26:07;;;;;;;4.38;3.85;;;20.70;96.00;;;;;;5070043;28;20394;-78
2021/04/29 03:28:34;;;;;;;6.13;5.53;;;20.70;96.80;;;;;;5086797;28;20535;-78
2021/04/29 03:31:01;;;;;;;8.02;6.70;;;20.60;95.60;;;;;;5069871;28;20401;-78
2021/04/29 03:33:28;;;;;;;6.78;5.63;;;20.60;95.70;;;;;;5076644;28;20392;-78
2021/04/29 03:35:55;;;;;;;16.65;14.35;;;20.50;95.70;;;;;;5094311;28;20435;-77
2021/04/29 03:38:22;;;;;;;13.90;11.60;;;20.50;94.80;;;;;;5071016;28;20893;-78
2021/04/29 03:40:49;;;;;;;12.38;10.40;;;20.60;95.30;;;;;;5070335;28;20448;-78
2021/04/29 03:43:16;;;;;;;10.13;7.25;;;20.70;94.90;;;;;;5068797;28;20432;-78
2021/04/29 03:45:43;;;;;;;9.10;7.45;;;20.70;94.60;;;;;;5092673;28;20896;-78
2021/04/29 03:48:10;;;;;;;8.18;6.88;;;20.80;94.60;;;;;;5087417;28;20475;-78
2021/04/29 03:50:37;;;;;;;7.40;6.70;;;20.90;94.70;;;;;;5075408;28;20660;-78
2021/04/29 03:53:04;;;;;;;21.98;17.90;;;20.90;95.30;;;;;;5075218;28;20476;-78
2021/04/29 03:55:31;;;;;;;20.13;17.37;;;20.80;94.30;;;;;;5081622;28;20479;-78
2021/04/29 03:57:58;;;;;;;21.67;18.65;;;20.70;95.90;;;;;;5087113;28;20463;-78
2021/04/29 04:00:25;;;;;;;21.52;19.13;;;20.60;95.50;;;;;;5086972;28;20919;-78
2021/04/29 04:02:52;;;;;;;20.67;17.25;;;20.60;95.60;;;;;;5088693;28;20388;-78
2021/04/29 04:05:19;;;;;;;19.17;16.75;;;20.50;95.90;;;;;;5088947;28;20917;-78
2021/04/29 04:07:46;;;;;;;18.98;16.60;;;20.60;96.40;;;;;;5086165;28;20772;-78
2021/04/29 04:10:13;;;;;;;13.75;10.90;;;20.60;96.10;;;;;;5088302;28;20414;-78
2021/04/29 04:12:41;;;;;;;10.50;8.80;;;20.70;95.50;;;;;;5077238;28;20401;-78
2021/04/29 04:15:09;;;;;;;7.40;6.60;;;20.70;95.40;;;;;;5069926;28;20411;-78
2021/04/29 04:17:36;;;;;;;6.90;6.10;;;20.70;95.90;;;;;;5069919;28;20393;-78
2021/04/29 04:20:04;;;;;;;9.60;7.05;;;20.60;95.40;;;;;;5084183;28;20388;-79
2021/04/29 04:22:31;;;;;;;9.37;7.30;;;20.60;94.60;;;;;;5087239;28;20416;-78
2021/04/29 04:24:58;;;;;;;11.83;9.73;;;20.60;95.20;;;;;;5081520;28;20910;-78
2021/04/29 04:27:25;;;;;;;14.73;13.13;;;20.60;94.60;;;;;;5083611;28;20398;-78
2021/04/29 04:29:52;;;;;;;12.60;11.40;;;20.60;94.40;;;;;;5068729;28;20442;-78
2021/04/29 04:32:22;;;;;;;13.23;10.98;;;20.60;95.40;;;;;;5085890;28;20380;-78
2021/04/29 04:34:49;;;;;;;14.00;10.65;;;20.60;95.30;;;;;;5079941;28;20954;-77
2021/04/29 04:37:16;;;;;;;21.17;17.83;;;20.60;95.40;;;;;;5078214;28;20415;-79
2021/04/29 04:39:43;;;;;;;23.05;17.75;;;20.50;94.80;;;;;;5082605;28;20483;-78
2021/04/29 04:42:10;;;;;;;22.77;18.38;;;20.50;95.70;;;;;;5084277;28;20380;-78
2021/04/29 04:44:37;;;;;;;28.10;22.23;;;20.50;96.60;;;;;;5089550;28;20929;-79
2021/04/29 04:47:04;;;;;;;44.17;34.63;;;20.40;97.00;;;;;;5087180;28;20430;-78
2021/04/29 04:49:31;;;;;;;41.80;34.57;;;20.50;96.80;;;;;;5071413;28;20414;-79
2021/04/29 04:51:58;;;;;;;35.77;30.10;;;20.50;97.00;;;;;;5068312;28;20485;-79
2021/04/29 04:54:27;;;;;;;14.03;10.83;;;20.50;97.30;;;;;;5077972;28;20443;-78
2021/04/29 04:56:54;;;;;;;13.55;9.23;;;20.50;97.40;;;;;;5096202;28;20382;-78
2021/04/29 04:59:21;;;;;;;15.45;11.30;;;20.40;98.10;;;;;;5091146;28;20395;-79
2021/04/29 05:01:49;;;;;;;17.80;12.15;;;20.20;99.00;;;;;;5091583;28;20384;-79
2021/04/29 05:04:16;;;;;;;13.43;10.18;;;20.10;99.00;;;;;;5090053;28;20384;-79
2021/04/29 05:06:43;;;;;;;12.52;8.70;;;20.10;99.40;;;;;;5091152;28;20442;-78
2021/04/29 05:09:10;;;;;;;9.32;8.18;;;20.10;99.90;;;;;;5088003;28;20413;-78
2021/04/29 05:11:37;;;;;;;15.75;12.38;;;20.10;99.90;;;;;;5080701;28;20479;-78
2021/04/29 05:14:04;;;;;;;12.15;9.00;;;20.00;99.90;;;;;;5080042;28;20412;-78
2021/04/29 05:16:31;;;;;;;12.18;8.18;;;19.90;99.90;;;;;;5072234;28;20366;-78
2021/04/29 05:18:59;;;;;;;8.10;6.38;;;19.80;99.90;;;;;;5073768;28;20398;-79
2021/04/29 05:21:26;;;;;;;6.47;5.72;;;19.80;99.90;;;;;;5071942;28;20509;-79
2021/04/29 05:23:53;;;;;;;6.15;4.95;;;19.80;99.90;;;;;;5076172;28;20484;-79
2021/04/29 05:26:20;;;;;;;6.68;5.03;;;19.80;99.90;;;;;;5088531;28;20476;-78
2021/04/29 05:28:47;;;;;;;12.00;7.70;;;19.70;99.90;;;;;;5086069;28;20399;-80
2021/04/29 05:31:14;;;;;;;12.13;8.50;;;19.60;99.90;;;;;;5089874;28;20436;-78
2021/04/29 05:33:41;;;;;;;11.88;7.35;;;19.50;99.90;;;;;;5091461;28;20483;-79
2021/04/29 05:36:08;;;;;;;7.35;5.72;;;19.40;99.90;;;;;;5091073;28;20396;-79
2021/04/29 05:38:35;;;;;;;6.30;4.78;;;19.30;99.90;;;;;;5091236;28;20812;-78
2021/04/29 05:41:02;;;;;;;6.80;3.90;;;19.30;99.90;;;;;;5090896;28;20381;-78
2021/04/29 05:43:29;;;;;;;5.97;4.00;;;19.20;99.90;;;;;;5091147;28;20422;-78
2021/04/29 05:45:56;;;;;;;7.47;3.95;;;19.20;99.90;;;;;;5090759;28;20375;-78
2021/04/29 05:48:23;;;;;;;7.00;3.70;;;19.20;99.90;;;;;;5090608;28;20392;-78
2021/04/29 05:50:50;;;;;;;4.05;3.65;;;19.10;99.90;;;;;;5090959;28;20879;-78
2021/04/29 05:53:17;;;;;;;5.55;3.67;;;19.10;99.90;;;;;;5088726;28;20426;-78
2021/04/29 05:55:44;;;;;;;5.03;3.58;;;19.10;99.90;;;;;;5090526;28;20387;-79
2021/04/29 05:58:11;;;;;;;4.38;3.80;;;19.00;99.90;;;;;;5086891;28;20388;-78
2021/04/29 06:00:38;;;;;;;6.05;4.22;;;18.90;99.90;;;;;;5091367;28;20412;-77
2021/04/29 06:03:05;;;;;;;6.60;3.97;;;18.90;99.90;;;;;;5090060;28;20496;-78
2021/04/29 06:05:32;;;;;;;6.95;5.57;;;18.80;99.90;;;;;;5085946;28;20396;-78
2021/04/29 06:08:00;;;;;;;7.53;5.80;;;18.80;99.90;;;;;;5090655;28;20380;-77
2021/04/29 06:10:29;;;;;;;9.07;4.53;;;18.70;99.90;;;;;;5090758;28;20779;-80
2021/04/29 06:12:57;;;;;;;6.82;4.28;;;18.60;99.90;;;;;;5089627;28;20376;-77
2021/04/29 06:15:24;;;;;;;7.47;4.25;;;18.60;99.90;;;;;;5089962;28;20396;-79
2021/04/29 06:17:52;;;;;;;6.15;4.10;;;18.50;99.90;;;;;;5092865;28;20402;-77
2021/04/29 06:20:19;;;;;;;6.90;3.90;;;18.50;99.90;;;;;;5090197;28;20368;-79
2021/04/29 06:22:46;;;;;;;5.83;3.83;;;18.40;99.90;;;;;;5090534;28;20380;-79
2021/04/29 06:25:14;;;;;;;6.65;4.10;;;18.30;99.90;;;;;;5079256;28;20393;-79
2021/04/29 06:27:41;;;;;;;6.38;3.92;;;18.20;99.90;;;;;;5084376;28;20444;-78
2021/04/29 06:30:10;;;;;;;7.65;4.40;;;18.20;99.90;;;;;;5111087;28;20482;-79
2021/04/29 06:32:37;;;;;;;5.73;4.13;;;18.10;99.90;;;;;;5095196;28;20422;-78
2021/04/29 06:35:04;;;;;;;6.32;4.45;;;18.00;99.90;;;;;;5083843;28;20396;-78
2021/04/29 06:37:31;;;;;;;5.78;4.00;;;18.00;99.90;;;;;;5081071;28;20396;-77
2021/04/29 06:39:58;;;;;;;5.50;4.25;;;17.90;99.90;;;;;;5082129;28;20396;-78
2021/04/29 06:42:25;;;;;;;4.78;4.25;;;17.90;99.90;;;;;;5089839;28;20388;-78
2021/04/29 06:44:52;;;;;;;4.70;3.80;;;17.80;99.90;;;;;;5089965;28;20788;-78
2021/04/29 06:47:23;;;;;;;4.43;3.95;;;17.70;99.90;;;;;;5088544;28;20749;-77
2021/04/29 06:49:50;;;;;;;7.50;4.50;;;17.70;99.90;;;;;;5076165;28;20707;-77
2021/04/29 06:52:17;;;;;;;6.35;4.10;;;17.70;99.90;;;;;;5081390;28;20470;-77
2021/04/29 06:54:46;;;;;;;6.43;4.03;;;17.60;99.90;;;;;;5088654;28;20415;-77
2021/04/29 06:57:13;;;;;;;5.82;4.03;;;17.50;99.90;;;;;;5088114;28;20388;-77
2021/04/29 06:59:41;;;;;;;5.68;3.75;;;17.50;99.90;;;;;;5087358;28;20394;-78
2021/04/29 07:02:10;;;;;;;6.18;4.50;;;17.40;99.90;;;;;;5089965;28;20906;-78
2021/04/29 07:04:37;;;;;;;6.57;4.10;;;17.30;99.90;;;;;;5085067;28;20961;-77
2021/04/29 07:07:04;;;;;;;5.03;4.10;;;17.20;99.90;;;;;;5084405;28;20392;-76
2021/04/29 07:09:31;;;;;;;5.88;4.45;;;17.20;99.90;;;;;;5083436;28;20418;-78
2021/04/29 07:11:58;;;;;;;5.75;4.10;;;17.20;99.90;;;;;;5087541;28;20405;-77
2021/04/29 07:14:25;;;;;;;5.28;4.05;;;17.10;99.90;;;;;;5082496;28;20392;-78
2021/04/29 07:16:52;;;;;;;5.97;4.20;;;17.10;99.90;;;;;;5086426;28;20487;-79
2021/04/29 07:19:19;;;;;;;5.97;4.38;;;17.00;99.90;;;;;;5088311;28;20392;-78
2021/04/29 07:21:46;;;;;;;7.93;4.32;;;16.90;99.90;;;;;;5088097;28;20395;-78
2021/04/29 07:24:13;;;;;;;5.95;4.70;;;16.80;99.90;;;;;;5069262;28;20431;-79
2021/04/29 07:26:40;;;;;;;4.78;4.22;;;16.80;99.90;;;;;;5069558;28;20398;-79
2021/04/29 07:29:07;;;;;;;8.65;4.60;;;16.80;99.90;;;;;;5069045;28;20452;-79
2021/04/29 07:31:34;;;;;;;7.90;4.60;;;16.70;99.90;;;;;;5079888;28;20459;-79
2021/04/29 07:34:01;;;;;;;5.37;4.30;;;16.60;99.90;;;;;;5088897;28;20441;-78
2021/04/29 07:36:28;;;;;;;7.13;4.70;;;16.60;99.90;;;;;;5087638;28;20404;-78
2021/04/29 07:38:55;;;;;;;7.45;4.65;;;16.50;99.90;;;;;;5087284;28;20404;-78
2021/04/29 07:41:26;;;;;;;6.55;4.63;;;16.50;99.90;;;;;;5084372;28;20433;-79
2021/04/29 07:43:53;;;;;;;6.88;4.95;;;16.50;99.90;;;;;;5080940;28;20404;-78
2021/04/29 07:46:19;;;;;;;5.88;4.40;;;16.40;99.90;;;;;;5083036;28;20906;-78
2021/04/29 07:48:46;;;;;;;7.70;4.60;;;16.30;99.90;;;;;;5085883;28;20482;-78
2021/04/29 07:51:13;;;;;;;6.15;4.45;;;16.30;99.90;;;;;;5076502;28;20410;-78
2021/04/29 07:53:40;;;;;;;5.78;4.10;;;16.30;99.90;;;;;;5084623;28;20385;-78
2021/04/29 07:56:07;;;;;;;6.40;4.53;;;16.30;99.90;;;;;;5080777;28;20946;-78
2021/04/29 07:58:34;;;;;;;6.13;4.30;;;16.30;99.90;;;;;;5086607;28;20388;-79
2021/04/29 08:01:01;;;;;;;5.70;4.75;;;16.20;99.90;;;;;;5084815;28;20393;-79
2021/04/29 08:03:28;;;;;;;5.65;4.45;;;16.20;99.90;;;;;;5081171;28;20483;-78
2021/04/29 08:05:55;;;;;;;4.85;4.35;;;16.10;99.90;;;;;;5083244;28;20424;-78
2021/04/29 08:08:22;;;;;;;6.47;4.83;;;16.10;99.90;;;;;;5085150;28;20470;-78
2021/04/29 08:10:49;;;;;;;7.80;4.40;;;16.10;99.90;;;;;;5084895;28;20450;-78
2021/04/29 08:13:16;;;;;;;8.43;4.22;;;16.00;99.90;;;;;;5089267;28;20418;-78
2021/04/29 08:15:43;;;;;;;6.47;4.30;;;16.00;99.90;;;;;;5089025;28;20412;-78
2021/04/29 08:18:11;;;;;;;6.25;4.03;;;16.00;99.90;;;;;;5089188;28;20379;-78
2021/04/29 08:20:40;;;;;;;4.60;4.03;;;15.90;99.90;;;;;;5089117;28;20373;-78
2021/04/29 08:23:07;;;;;;;5.75;3.92;;;15.90;99.90;;;;;;5095499;28;20392;-78
2021/04/29 08:25:34;;;;;;;5.80;4.43;;;15.90;99.90;;;;;;5089039;28;20383;-78
2021/04/29 08:28:02;;;;;;;4.90;3.72;;;15.90;99.90;;;;;;5087688;28;20414;-79
2021/04/29 08:30:29;;;;;;;4.25;3.85;;;15.80;99.90;;;;;;5080380;28;21016;-78
2021/04/29 08:32:58;;;;;;;6.70;4.13;;;15.80;99.90;;;;;;5084785;28;20404;-78
2021/04/29 08:35:27;;;;;;;4.13;3.63;;;15.80;99.90;;;;;;5079912;28;20445;-77
2021/04/29 08:37:54;;;;;;;5.47;3.78;;;15.80;99.90;;;;;;5084600;28;20391;-78
2021/04/29 08:40:23;;;;;;;4.10;3.67;;;15.80;99.90;;;;;;5084666;28;20397;-79
2021/04/29 08:42:51;;;;;;;6.97;3.72;;;15.80;99.90;;;;;;5080081;28;20394;-78
2021/04/29 08:45:18;;;;;;;5.10;3.65;;;15.70;99.90;;;;;;5079042;28;20388;-78
2021/04/29 08:47:55;;;;;;;6.70;4.25;;;15.70;99.90;;;;;;5079552;28;20441;-78
2021/04/29 08:50:24;;;;;;;5.72;3.78;;;15.60;99.90;;;;;;5084515;28;20956;-78
2021/04/29 08:52:54;;;;;;;5.93;3.75;;;15.60;99.90;;;;;;5087991;28;20486;-78
2021/04/29 08:55:26;;;;;;;4.63;3.80;;;15.60;99.90;;;;;;5088701;28;20372;-78
2021/04/29 08:57:53;;;;;;;4.03;3.53;;;15.50;99.90;;;;;;5087645;28;20392;-77
2021/04/29 09:00:22;;;;;;;4.90;4.00;;;15.50;99.90;;;;;;5083846;28;20938;-78
2021/04/29 09:02:49;;;;;;;6.40;4.40;;;15.50;99.90;;;;;;5083227;28;20388;-78
2021/04/29 09:05:23;;;;;;;6.35;4.47;;;15.50;99.90;;;;;;5091082;28;20754;-78
2021/04/29 09:08:00;;;;;;;5.93;5.15;;;15.50;99.90;;;;;;5107218;28;20484;-78
2021/04/29 09:10:30;;;;;;;12.43;8.25;;;15.50;99.90;;;;;;5077070;28;20417;-79
2021/04/29 09:12:59;;;;;;;11.05;9.75;;;15.50;99.90;;;;;;5079599;28;20430;-78
2021/04/29 09:15:31;;;;;;;16.70;12.57;;;15.50;99.90;;;;;;5083313;28;20403;-79
2021/04/29 09:18:07;;;;;;;23.20;17.40;;;15.50;99.90;;;;;;5086772;28;20396;-79
2021/04/29 09:20:35;;;;;;;26.70;19.63;;;15.50;99.90;;;;;;5086675;28;20901;-78
2021/04/29 09:23:07;;;;;;;29.93;21.50;;;15.50;99.90;;;;;;5089661;28;20415;-79
2021/04/29 09:25:36;;;;;;;31.13;24.75;;;15.40;99.90;;;;;;5076470;28;20409;-78
2021/04/29 09:28:04;;;;;;;36.50;27.80;;;15.40;99.90;;;;;;5072228;28;20394;-78
2021/04/29 09:30:31;;;;;;;39.00;30.98;;;15.40;99.90;;;;;;5087447;28;20396;-78
2021/04/29 09:33:00;;;;;;;44.33;35.85;;;15.40;99.90;;;;;;5086231;28;20446;-79
2021/04/29 09:35:28;;;;;;;53.60;40.00;;;15.30;99.90;;;;;;5082023;28;20487;-78
2021/04/29 09:37:59;;;;;;;53.83;41.57;;;15.30;99.90;;;;;;5080437;28;20384;-79
2021/04/29 09:40:31;;;;;;;54.00;40.65;;;15.30;99.90;;;;;;5089956;28;20468;-78
2021/04/29 09:42:59;;;;;;;56.25;43.85;;;15.20;99.90;;;;;;5079551;28;20384;-78
2021/04/29 09:45:30;;;;;;;59.10;46.00;;;15.20;99.90;;;;;;5092102;28;20388;-78
2021/04/29 09:48:05;;;;;;;71.68;55.45;;;15.10;99.90;;;;;;5091970;28;20441;-79
2021/04/29 09:50:38;;;;;;;84.07;62.72;;;15.10;99.90;;;;;;5090904;28;20902;-78
2021/04/29 09:53:16;;;;;;;102.80;76.75;;;15.10;99.90;;;;;;5091764;28;20384;-79
2021/04/29 09:55:47;;;;;;;122.80;95.72;;;15.10;99.90;;;;;;5091651;28;20746;-79
2021/04/29 09:58:18;;;;;;;146.88;114.75;;;15.10;99.90;;;;;;5091577;28;20364;-79
2021/04/29 10:00:48;;;;;;;164.68;130.55;;;15.20;99.90;;;;;;5091523;28;20381;-80
2021/04/29 10:03:19;;;;;;;186.40;148.68;;;15.20;99.90;;;;;;5089741;28;20392;-78
2021/04/29 10:05:53;;;;;;;241.20;195.10;;;15.10;99.90;;;;;;5083872;28;20394;-79
2021/04/29 10:08:25;;;;;;;253.90;208.30;;;15.20;99.90;;;;;;5089407;28;20747;-78
2021/04/29 10:10:55;;;;;;;294.77;245.63;;;15.20;99.90;;;;;;5091565;28;20982;-79
2021/04/29 10:13:30;;;;;;;299.73;250.48;;;15.10;99.90;;;;;;5091056;28;20387;-80
2021/04/29 10:15:59;;;;;;;325.67;274.33;;;15.10;99.90;;;;;;5086865;28;20400;-79
2021/04/29 10:18:26;;;;;;;341.20;286.45;;;15.10;99.90;;;;;;5087675;28;20465;-80
2021/04/29 10:20:56;;;;;;;336.35;284.35;;;15.10;99.90;;;;;;5082659;28;20398;-80
2021/04/29 10:23:23;;;;;;;342.07;292.33;;;15.10;99.90;;;;;;5079102;28;20896;-79
2021/04/29 10:25:51;;;;;;;376.88;320.98;;;15.00;99.90;;;;;;5085850;28;20400;-80
2021/04/29 10:28:42;;;;;;;393.95;335.73;;;15.00;99.90;;;;;;5089916;28;20400;-79
2021/04/29 10:31:36;;;;;;;440.05;383.17;;;15.00;99.90;;;;;;5075547;28;20396;-79
2021/04/29 10:34:16;;;;;;;420.85;359.35;;;15.00;99.90;;;;;;5084573;28;20392;-80
2021/04/29 10:36:46;;;;;;;416.10;359.58;;;15.00;99.90;;;;;;5088067;28;20392;-80
2021/04/29 10:39:16;;;;;;;403.77;338.70;;;15.00;99.90;;;;;;5090006;28;20401;-80
2021/04/29 10:41:46;;;;;;;349.40;296.77;;;15.00;99.90;;;;;;5091035;28;20379;-80
2021/04/29 10:44:18;;;;;;;312.25;267.52;;;15.00;99.90;;;;;;5088274;28;20380;-79
2021/04/29 10:46:48;;;;;;;312.38;265.55;;;14.90;99.90;;;;;;5088569;28;20427;-79
2021/04/29 10:49:17;;;;;;;294.20;248.30;;;14.90;99.90;;;;;;5087158;28;20567;-79
2021/04/29 10:51:46;;;;;;;250.85;209.65;;;14.90;99.90;;;;;;5074077;28;20555;-78
2021/04/29 10:54:20;;;;;;;213.82;177.10;;;14.80;99.90;;;;;;5082686;28;20904;-78
2021/04/29 10:57:04;;;;;;;195.10;160.63;;;14.80;99.90;;;;;;5080584;28;20423;-79
2021/04/29 10:59:39;;;;;;;189.40;154.38;;;14.70;99.90;;;;;;5086511;28;20450;-79
2021/04/29 11:02:07;;;;;;;174.23;145.32;;;14.60;99.90;;;;;;5080356;28;20873;-78
2021/04/29 11:04:52;;;;;;;166.90;137.13;;;14.60;99.90;;;;;;5080310;28;21184;-79
2021/04/29 11:07:21;;;;;;;142.95;115.60;;;14.50;99.90;;;;;;5086244;28;20527;-80
2021/04/29 11:10:18;;;;;;;119.20;99.30;;;14.50;99.90;;;;;;5079771;28;20513;-78
2021/04/29 11:12:53;;;;;;;108.97;92.63;;;14.40;99.90;;;;;;5073348;28;20388;-79
2021/04/29 11:15:57;;;;;;;108.73;90.17;;;14.30;99.90;;;;;;5077272;28;20491;-80
2021/04/29 11:18:24;;;;;;;99.30;82.88;;;14.30;99.90;;;;;;5080505;28;20382;-79
2021/04/29 11:20:51;;;;;;;92.07;77.07;;;14.20;99.90;;;;;;5077243;28;20428;-79
2021/04/29 11:23:27;;;;;;;96.63;83.63;;;14.10;99.90;;;;;;5077198;28;20489;-78
2021/04/29 11:26:08;;;;;;;108.00;90.13;;;14.10;99.90;;;;;;5079176;28;20423;-78
2021/04/29 11:28:40;;;;;;;106.60;88.00;;;14.00;99.90;;;;;;5090365;28;20376;-80
2021/04/29 11:31:07;;;;;;;85.68;72.32;;;13.90;99.90;;;;;;5080892;28;20459;-78
2021/04/29 11:33:39;;;;;;;110.10;93.20;;;13.90;99.90;;;;;;5083816;28;20772;-79
2021/04/29 11:36:22;;;;;;;105.55;88.53;;;13.80;99.90;;;;;;5082788;28;20385;-79
2021/04/29 11:38:54;;;;;;;99.82;86.18;;;13.70;99.90;;;;;;5083274;28;20399;-78
2021/04/29 11:41:23;;;;;;;107.40;92.07;;;13.60;99.90;;;;;;5078773;28;20853;-78
2021/04/29 11:44:06;;;;;;;111.72;92.13;;;13.50;99.90;;;;;;5086001;28;20481;-80
2021/04/29 11:46:36;;;;;;;100.85;86.30;;;13.40;99.90;;;;;;5086233;28;20392;-79
2021/04/29 11:49:05;;;;;;;96.68;84.22;;;13.40;99.90;;;;;;5082409;28;20404;-78
2021/04/29 11:51:43;;;;;;;100.07;80.88;;;13.40;99.90;;;;;;5081949;28;20398;-79
2021/04/29 11:54:10;;;;;;;81.90;69.93;;;13.40;99.90;;;;;;5087840;28;20403;-79
2021/04/29 11:56:45;;;;;;;79.10;65.45;;;13.40;99.90;;;;;;5075657;28;20407;-79
2021/04/29 11:59:14;;;;;;;65.90;56.08;;;13.40;99.90;;;;;;5072402;28;20930;-80
2021/04/29 12:01:42;;;;;;;52.45;45.00;;;13.40;99.90;;;;;;5086704;28;20442;-79
2021/04/29 12:04:19;;;;;;;50.05;44.00;;;13.40;99.90;;;;;;5087743;28;20414;-79
2021/04/29 12:06:54;;;;;;;32.85;28.40;;;13.40;99.90;;;;;;5076558;28;20482;-79
2021/04/29 12:09:23;;;;;;;20.20;16.70;;;13.50;99.90;;;;;;5078476;28;20979;-79
2021/04/29 12:11:51;;;;;;;19.38;15.57;;;13.60;99.90;;;;;;5086251;28;20427;-80
2021/04/29 12:14:28;;;;;;;17.83;14.93;;;13.70;99.90;;;;;;5085197;28;20454;-80
2021/04/29 12:17:03;;;;;;;16.83;14.18;;;13.80;99.90;;;;;;5084823;28;20423;-79
2021/04/29 12:19:33;;;;;;;13.25;10.80;;;13.80;99.90;;;;;;5086203;28;20751;-79
2021/04/29 12:22:01;;;;;;;13.93;9.80;;;13.80;99.90;;;;;;5088244;28;20471;-80
2021/04/29 12:24:40;;;;;;;13.02;8.95;;;13.90;99.90;;;;;;5088002;28;20373;-80
2021/04/29 12:27:22;;;;;;;9.25;8.35;;;13.90;99.90;;;;;;5088907;28;20464;-80
2021/04/29 12:30:05;;;;;;;10.38;8.70;;;13.90;99.90;;;;;;5088035;28;20404;-80
2021/04/29 12:32:43;;;;;;;9.85;8.82;;;13.90;99.90;;;;;;5084254;28;20388;-80
2021/04/29 12:35:11;;;;;;;11.25;9.20;;;13.90;99.90;;;;;;5080874;28;20484;-80
2021/04/29 12:37:51;;;;;;;11.18;9.77;;;13.90;99.90;;;;;;5081889;28;20376;-80
2021/04/29 12:40:31;;;;;;;13.45;10.50;;;13.80;99.90;;;;;;5089085;28;20447;-80
2021/04/29 12:43:09;;;;;;;12.15;10.52;;;13.80;99.90;;;;;;5085780;28;20498;-79
2021/04/29 12:45:56;;;;;;;12.70;11.40;;;13.60;99.90;;;;;;5083291;28;21021;-79
2021/04/29 12:48:32;;;;;;;13.68;11.40;;;13.50;99.90;;;;;;5080148;28;20905;-78
2021/04/29 12:51:12;;;;;;;12.73;11.35;;;13.40;99.90;;;;;;5069648;28;20441;-78
2021/04/29 12:53:55;;;;;;;12.13;10.20;;;13.30;99.90;;;;;;5073464;28;20925;-79